createdAt,value
2022-08-21T00:00:02.743Z,76.9
2022-08-21T00:03:02.805Z,76.9
2022-08-21T00:06:02.776Z,76.9
2022-08-21T00:09:08.979Z,76.7
2022-08-21T00:12:02.757Z,76.7
2022-08-21T00:15:02.838Z,76.7
2022-08-21T00:18:03.575Z,76.7
2022-08-21T00:21:02.803Z,76.7
2022-08-21T00:24:06.579Z,76.7
2022-08-21T00:27:02.862Z,76.7
2022-08-21T00:30:02.805Z,76.7
2022-08-21T00:33:02.740Z,76.7
2022-08-21T00:36:02.885Z,76.7
2022-08-21T00:39:02.827Z,76.7
2022-08-21T00:42:02.894Z,76.7
2022-08-21T00:45:02.814Z,76.7
2022-08-21T00:48:02.881Z,76.7
2022-08-21T00:51:02.854Z,76.7
2022-08-21T00:54:03.258Z,76.7
2022-08-21T00:57:03.033Z,76.7
2022-08-21T01:00:02.770Z,75.4
2022-08-21T01:03:02.974Z,75.4
2022-08-21T01:06:02.755Z,75
2022-08-21T01:09:02.789Z,75
2022-08-21T01:12:02.883Z,75
2022-08-21T01:15:02.906Z,75
2022-08-21T01:18:02.924Z,75
2022-08-21T01:21:03.172Z,75
2022-08-21T01:24:02.914Z,75
2022-08-21T01:27:02.941Z,75
2022-08-21T01:30:02.769Z,75.9
2022-08-21T01:33:02.754Z,75.9
2022-08-21T01:36:02.838Z,75.9
2022-08-21T01:39:02.839Z,75.9
2022-08-21T01:42:02.800Z,75.9
2022-08-21T01:45:02.791Z,75.9
2022-08-21T01:48:02.825Z,75.9
2022-08-21T01:51:02.752Z,75.9
2022-08-21T01:54:02.802Z,75.9
2022-08-21T01:57:02.812Z,76.3
2022-08-21T02:00:02.784Z,76.3
2022-08-21T02:03:02.783Z,76.3
2022-08-21T02:06:02.767Z,76.3
2022-08-21T02:09:02.771Z,76.3
2022-08-21T02:12:02.837Z,76.3
2022-08-21T02:15:02.849Z,76.3
2022-08-21T02:18:02.764Z,76.3
2022-08-21T02:21:02.768Z,76.3
2022-08-21T02:24:02.978Z,76.3
2022-08-21T02:27:03.773Z,76.3
2022-08-21T02:30:02.830Z,77.8
2022-08-21T02:33:02.779Z,77.8
2022-08-21T02:36:02.787Z,77.8
2022-08-21T02:39:02.819Z,77.8
2022-08-21T02:42:02.765Z,77.8
2022-08-21T02:45:02.842Z,77.8
2022-08-21T02:48:04.250Z,78.2
2022-08-21T02:51:02.776Z,78.2
2022-08-21T02:54:02.793Z,78.2
2022-08-21T02:57:02.887Z,78.2
2022-08-21T03:00:02.821Z,78.2
2022-08-21T03:03:02.815Z,78.2
2022-08-21T03:06:02.835Z,78.2
2022-08-21T03:09:03.043Z,78.2
2022-08-21T03:12:02.756Z,78.7
2022-08-21T03:15:02.860Z,78.7
2022-08-21T03:18:02.778Z,78.7
2022-08-21T03:21:02.774Z,78.7
2022-08-21T03:24:06.366Z,78.7
2022-08-21T03:27:02.786Z,78.7
2022-08-21T03:30:02.810Z,78.7
2022-08-21T03:33:02.781Z,78.7
2022-08-21T03:36:02.765Z,78.7
2022-08-21T03:39:02.734Z,78.7
2022-08-21T03:42:02.791Z,78.7
2022-08-21T03:45:02.808Z,78.6
2022-08-21T03:48:02.772Z,78.6
2022-08-21T03:51:02.763Z,78.6
2022-08-21T03:54:02.774Z,78.9
2022-08-21T03:57:02.755Z,78.9
2022-08-21T04:00:02.836Z,78.9
2022-08-21T04:03:02.987Z,78.9
2022-08-21T04:06:02.787Z,78.9
2022-08-21T04:09:03.072Z,78.9
2022-08-21T04:12:02.816Z,78.9
2022-08-21T04:15:02.872Z,78.9
2022-08-21T04:18:02.828Z,78.9
2022-08-21T04:21:03.957Z,78.9
2022-08-21T04:24:02.819Z,78.9
2022-08-21T04:27:02.734Z,78.9
2022-08-21T04:30:02.908Z,78.9
2022-08-21T04:33:03.537Z,78.9
2022-08-21T04:36:02.769Z,78.9
2022-08-21T04:39:05.629Z,78.9
2022-08-21T04:42:02.770Z,78.9
2022-08-21T04:45:02.771Z,79.1
2022-08-21T04:48:02.835Z,79.1
2022-08-21T04:51:02.784Z,79.1
2022-08-21T04:54:02.785Z,79.1
2022-08-21T04:57:02.744Z,79.1
2022-08-21T05:00:02.832Z,79.1
2022-08-21T05:03:02.984Z,79.1
2022-08-21T05:06:02.768Z,79.1
2022-08-21T05:09:04.552Z,79.1
2022-08-21T05:12:02.835Z,79.1
2022-08-21T05:15:02.805Z,79.1
2022-08-21T05:18:03.648Z,79.1
2022-08-21T05:21:02.732Z,79.1
2022-08-21T05:24:02.781Z,79.1
2022-08-21T05:27:06.008Z,79.1
2022-08-21T05:30:03.047Z,79.1
2022-08-21T05:33:03.165Z,79.1
2022-08-21T05:36:02.776Z,80.3
2022-08-21T05:39:02.852Z,80.4
2022-08-21T05:42:02.769Z,80.4
2022-08-21T05:45:02.904Z,80.4
2022-08-21T05:48:05.195Z,80.4
2022-08-21T05:51:02.826Z,80.4
2022-08-21T05:54:02.873Z,80.4
2022-08-21T05:57:03.178Z,80.4
2022-08-21T06:00:02.986Z,80.4
2022-08-21T06:03:02.802Z,80.4
2022-08-21T06:06:02.785Z,80.4
2022-08-21T06:09:02.770Z,80.4
2022-08-21T06:12:02.795Z,80.4
2022-08-21T06:15:02.806Z,84.1
2022-08-21T06:18:02.817Z,84.1
2022-08-21T06:21:03.202Z,84.1
2022-08-21T06:24:02.801Z,84.1
2022-08-21T06:27:02.787Z,84.1
2022-08-21T06:30:02.853Z,84.1
2022-08-21T06:33:03.179Z,85.4
2022-08-21T06:36:02.781Z,85.4
2022-08-21T06:39:03.146Z,85.4
2022-08-21T06:42:03.319Z,85.4
2022-08-21T06:45:02.841Z,85.4
2022-08-21T06:48:02.807Z,85.4
2022-08-21T06:51:02.824Z,85.4
2022-08-21T06:54:02.830Z,85.4
2022-08-21T06:57:02.825Z,85.4
2022-08-21T07:00:02.922Z,85.4
2022-08-21T07:03:03.116Z,85.4
2022-08-21T07:06:02.795Z,84.3
2022-08-21T07:09:02.816Z,84.3
2022-08-21T07:12:02.787Z,84.3
2022-08-21T07:15:02.830Z,81.8
2022-08-21T07:18:02.779Z,81.8
2022-08-21T07:21:02.798Z,81.8
2022-08-21T07:24:02.814Z,79.8
2022-08-21T07:27:04.357Z,79.8
2022-08-21T07:30:02.880Z,79.8
2022-08-21T07:33:03.347Z,78.6
2022-08-21T07:36:02.780Z,78.6
2022-08-21T07:39:03.435Z,78.6
2022-08-21T07:42:10.335Z,75.2
2022-08-21T07:45:02.856Z,75.2
2022-08-21T07:48:02.852Z,75.2
2022-08-21T07:51:02.824Z,72.9
2022-08-21T07:54:02.877Z,72.9
2022-08-21T07:57:02.799Z,72.9
2022-08-21T08:00:02.915Z,71.5
2022-08-21T08:03:03.264Z,71.5
2022-08-21T08:06:02.895Z,71.5
2022-08-21T08:09:02.846Z,71.5
2022-08-21T08:12:02.802Z,69.4
2022-08-21T08:15:02.840Z,69.4
2022-08-21T08:18:02.875Z,69.4
2022-08-21T08:21:02.803Z,69.4
2022-08-21T08:24:20.633Z,69.4
2022-08-21T08:27:02.799Z,66.2
2022-08-21T08:30:02.853Z,66.2
2022-08-21T08:33:03.416Z,66.2
2022-08-21T08:36:10.414Z,66.2
2022-08-21T08:39:03.372Z,64.5
2022-08-21T08:42:03.200Z,64.5
2022-08-21T08:45:02.873Z,64.5
2022-08-21T08:48:02.864Z,64.5
2022-08-21T08:51:02.827Z,64.5
2022-08-21T08:54:02.779Z,66.4
2022-08-21T08:57:02.786Z,66.4
2022-08-21T09:00:04.675Z,66.4
2022-08-21T09:03:03.500Z,66.4
2022-08-21T09:06:02.830Z,66.4
2022-08-21T09:09:02.783Z,66.4
2022-08-21T09:12:03.323Z,66.4
2022-08-21T09:15:02.800Z,66.4
2022-08-21T09:18:07.924Z,66.4
2022-08-21T09:21:02.813Z,67.9
2022-08-21T09:24:02.812Z,67.9
2022-08-21T09:27:02.825Z,67.9
2022-08-21T09:30:02.888Z,67.9
2022-08-21T09:33:03.421Z,67.9
2022-08-21T09:36:02.796Z,67.9
2022-08-21T09:39:02.787Z,67.9
2022-08-21T09:42:02.784Z,67.9
2022-08-21T09:45:02.799Z,67.9
2022-08-21T09:48:02.803Z,65.6
2022-08-21T09:51:02.767Z,65.6
2022-08-21T09:54:02.795Z,65.6
2022-08-21T09:57:02.775Z,65.6
2022-08-21T10:00:02.827Z,65.6
2022-08-21T10:03:02.825Z,65.6
2022-08-21T10:06:02.806Z,65.6
2022-08-21T10:09:02.766Z,65.6
2022-08-21T10:12:02.851Z,65.6
2022-08-21T10:15:05.336Z,65.6
2022-08-21T10:18:02.830Z,61.1
2022-08-21T10:21:02.831Z,61.1
2022-08-21T10:24:02.837Z,61.1
2022-08-21T10:27:02.763Z,61.1
2022-08-21T10:30:02.931Z,60.2
2022-08-21T10:33:02.821Z,60.2
2022-08-21T10:36:02.836Z,60.2
2022-08-21T10:39:38.396Z,60.2
2022-08-21T10:42:02.841Z,60.2
2022-08-21T10:45:02.802Z,60.2
2022-08-21T10:48:02.856Z,60.2
2022-08-21T10:51:02.800Z,60.2
2022-08-21T10:54:02.838Z,59.1
2022-08-21T10:57:05.483Z,59.1
2022-08-21T11:00:03.090Z,59.1
2022-08-21T11:03:02.935Z,59.1
2022-08-21T11:06:02.841Z,59.1
2022-08-21T11:09:02.862Z,59.1
2022-08-21T11:12:14.628Z,59.1
2022-08-21T11:15:04.134Z,59.1
2022-08-21T11:18:02.820Z,55.8
2022-08-21T11:21:02.812Z,55.8
2022-08-21T11:24:02.816Z,55.8
2022-08-21T11:27:02.819Z,55.8
2022-08-21T11:30:02.858Z,55.8
2022-08-21T11:33:03.096Z,55.8
2022-08-21T11:36:02.892Z,55.8
2022-08-21T11:39:02.778Z,55.8
2022-08-21T11:42:05.732Z,55.8
2022-08-21T11:45:02.817Z,55.8
2022-08-21T11:48:02.834Z,54.4
2022-08-21T11:51:02.855Z,54.4
2022-08-21T11:54:02.828Z,54.4
2022-08-21T11:57:02.899Z,54.4
2022-08-21T12:00:02.937Z,54.4
2022-08-21T12:03:02.792Z,54.4
2022-08-21T12:06:02.756Z,54.4
2022-08-21T12:09:02.752Z,54.4
2022-08-21T12:12:02.994Z,54.4
2022-08-21T12:15:02.858Z,54.4
2022-08-21T12:18:02.815Z,54.4
2022-08-21T12:21:02.779Z,54.4
2022-08-21T12:24:02.803Z,54.4
2022-08-21T12:27:02.863Z,54.4
2022-08-21T12:30:02.800Z,54.4
2022-08-21T12:33:03.019Z,54.4
2022-08-21T12:36:02.825Z,50.8
2022-08-21T12:39:02.829Z,50.8
2022-08-21T12:42:04.733Z,50.8
2022-08-21T12:45:02.831Z,50.8
2022-08-21T12:48:02.783Z,50.8
2022-08-21T12:51:02.818Z,50.8
2022-08-21T12:54:02.771Z,50.8
2022-08-21T12:57:02.805Z,50.8
2022-08-21T13:00:02.939Z,50.8
2022-08-21T13:03:02.926Z,50.8
2022-08-21T13:06:02.783Z,49
2022-08-21T13:09:02.784Z,49
2022-08-21T13:12:02.805Z,49
2022-08-21T13:15:04.457Z,49
2022-08-21T13:18:02.788Z,49
2022-08-21T13:21:02.836Z,49
2022-08-21T13:24:10.870Z,49
2022-08-21T13:27:02.798Z,49
2022-08-21T13:30:02.909Z,49
2022-08-21T13:33:03.417Z,48.3
2022-08-21T13:36:02.828Z,48.3
2022-08-21T13:39:02.843Z,48.3
2022-08-21T13:42:04.912Z,48.3
2022-08-21T13:45:02.889Z,48.3
2022-08-21T13:48:08.153Z,48.3
2022-08-21T13:51:02.739Z,46
2022-08-21T13:54:02.795Z,46
2022-08-21T13:57:02.822Z,46
2022-08-21T14:00:02.846Z,45.5
2022-08-21T14:03:02.910Z,45.5
2022-08-21T14:06:02.944Z,45.5
2022-08-21T14:09:02.852Z,45.5
2022-08-21T14:12:02.759Z,45.5
2022-08-21T14:15:02.771Z,45.5
2022-08-21T14:18:02.829Z,45.5
2022-08-21T14:21:02.820Z,45.5
2022-08-21T14:24:02.771Z,45.5
2022-08-21T14:27:02.844Z,45.5
2022-08-21T14:30:03.776Z,45.5
2022-08-21T14:33:03.326Z,45.5
2022-08-21T14:36:02.832Z,45.5
2022-08-21T14:39:04.627Z,45.5
2022-08-21T14:42:02.752Z,45.5
2022-08-21T14:45:02.903Z,45.5
2022-08-21T14:48:02.826Z,45.5
2022-08-21T14:51:03.165Z,45.5
2022-08-21T14:54:02.785Z,44
2022-08-21T14:57:02.828Z,44.1
2022-08-21T15:00:04.603Z,44.1
2022-08-21T15:03:02.961Z,44.1
2022-08-21T15:06:02.828Z,44.1
2022-08-21T15:09:02.906Z,44.1
2022-08-21T15:12:02.776Z,44.1
2022-08-21T15:15:02.807Z,44.1
2022-08-21T15:18:02.817Z,44.1
2022-08-21T15:21:02.790Z,44.1
2022-08-21T15:24:02.853Z,44.1
2022-08-21T15:27:02.772Z,44.1
2022-08-21T15:30:02.859Z,44.1
2022-08-21T15:33:02.962Z,44.1
2022-08-21T15:36:02.796Z,44.1
2022-08-21T15:39:02.836Z,44.1
2022-08-21T15:42:13.228Z,44.1
2022-08-21T15:45:02.794Z,44.1
2022-08-21T15:48:02.802Z,44.1
2022-08-21T15:51:02.815Z,44.1
2022-08-21T15:54:02.803Z,43.8
2022-08-21T15:57:02.769Z,43.8
2022-08-21T16:00:02.850Z,43.8
2022-08-21T16:03:03.372Z,43.8
2022-08-21T16:06:02.799Z,43.8
2022-08-21T16:09:02.766Z,43.8
2022-08-21T16:12:02.826Z,43.8
2022-08-21T16:15:02.824Z,43.8
2022-08-21T16:18:02.801Z,43.8
2022-08-21T16:21:02.793Z,43.8
2022-08-21T16:24:02.863Z,43.8
2022-08-21T16:27:04.795Z,43.8
2022-08-21T16:30:02.864Z,43.8
2022-08-21T16:33:02.963Z,43.8
2022-08-21T16:36:02.812Z,43.8
2022-08-21T16:39:02.843Z,43.8
2022-08-21T16:42:02.796Z,43.8
2022-08-21T16:45:02.796Z,43.8
2022-08-21T16:48:02.889Z,43.8
2022-08-21T16:51:02.783Z,43.8
2022-08-21T16:54:02.806Z,44.9
2022-08-21T16:57:02.849Z,44.9
2022-08-21T17:00:02.818Z,44.9
2022-08-21T17:03:03.275Z,44.9
2022-08-21T17:06:02.987Z,44.9
2022-08-21T17:09:02.814Z,44.9
2022-08-21T17:12:02.808Z,44.9
2022-08-21T17:15:02.836Z,44.9
2022-08-21T17:18:02.767Z,44.9
2022-08-21T17:21:03.164Z,44.9
2022-08-21T17:24:02.815Z,44.9
2022-08-21T17:27:02.842Z,44.9
2022-08-21T17:30:02.895Z,44.9
2022-08-21T17:33:03.135Z,44.9
2022-08-21T17:36:02.818Z,44.9
2022-08-21T17:39:02.886Z,44.9
2022-08-21T17:42:02.802Z,46.1
2022-08-21T17:45:03.120Z,46.1
2022-08-21T17:48:02.815Z,46.1
2022-08-21T17:51:02.817Z,46.1
2022-08-21T17:54:02.841Z,46.6
2022-08-21T17:57:02.848Z,46.6
2022-08-21T18:00:02.880Z,46.6
2022-08-21T18:03:02.792Z,47.2
2022-08-21T18:06:03.214Z,47.2
2022-08-21T18:09:02.794Z,47.2
2022-08-21T18:12:02.795Z,47.2
2022-08-21T18:15:02.803Z,47.2
2022-08-21T18:18:02.843Z,47.2
2022-08-21T18:21:02.816Z,47.2
2022-08-21T18:24:02.784Z,47.2
2022-08-21T18:27:02.792Z,49.6
2022-08-21T18:30:02.813Z,49.6
2022-08-21T18:33:03.100Z,49.6
2022-08-21T18:36:06.604Z,49.6
2022-08-21T18:39:38.957Z,49.6
2022-08-21T18:42:02.809Z,49.6
2022-08-21T18:45:02.952Z,52.8
2022-08-21T18:48:03.609Z,52.8
2022-08-21T18:51:02.752Z,53.3
2022-08-21T18:54:02.804Z,53.3
2022-08-21T18:57:10.543Z,53.3
2022-08-21T19:00:03.250Z,53.3
2022-08-21T19:03:06.053Z,53.3
2022-08-21T19:06:02.813Z,53.3
2022-08-21T19:09:02.993Z,53.3
2022-08-21T19:12:03.166Z,54.2
2022-08-21T19:15:03.071Z,54.2
2022-08-21T19:18:02.739Z,54.2
2022-08-21T19:21:03.386Z,54.2
2022-08-21T19:24:23.061Z,54.2
2022-08-21T19:27:02.786Z,54.2
2022-08-21T19:30:03.772Z,56
2022-08-21T19:33:03.667Z,56
2022-08-21T19:36:02.768Z,56
2022-08-21T19:39:03.789Z,56
2022-08-21T19:42:02.747Z,56.4
2022-08-21T19:45:02.749Z,56.4
2022-08-21T19:48:05.141Z,56.4
2022-08-21T19:51:02.851Z,56.4
2022-08-21T19:54:03.474Z,56.4
2022-08-21T19:57:06.176Z,57.1
2022-08-21T20:00:03.933Z,57.1
2022-08-21T20:03:03.656Z,57.1
2022-08-21T20:06:03.111Z,57.1
2022-08-21T20:09:02.770Z,58.9
2022-08-21T20:12:06.401Z,58.9
2022-08-21T20:15:02.840Z,58.9
2022-08-21T20:18:03.977Z,58.9
2022-08-21T20:21:02.907Z,59.4
2022-08-21T20:24:03.303Z,59.4
2022-08-21T20:27:02.744Z,59.4
2022-08-21T20:30:02.755Z,59.4
2022-08-21T20:33:03.372Z,59.4
2022-08-21T20:36:02.976Z,59.4
2022-08-21T20:39:02.812Z,61.1
2022-08-21T20:42:03.167Z,61.1
2022-08-21T20:45:08.168Z,61.1
2022-08-21T20:48:04.225Z,61.1
2022-08-21T20:51:02.775Z,61.1
2022-08-21T20:54:02.768Z,61.1
2022-08-21T20:57:02.773Z,60.3
2022-08-21T21:00:02.880Z,60.3
2022-08-21T21:03:06.373Z,60.3
2022-08-21T21:06:02.822Z,60.3
2022-08-21T21:09:03.038Z,60.3
2022-08-21T21:12:02.799Z,60.3
2022-08-21T21:15:05.314Z,60.8
2022-08-21T21:18:03.212Z,60.8
2022-08-21T21:21:02.771Z,60.8
2022-08-21T21:24:02.778Z,60.8
2022-08-21T21:27:02.751Z,60.8
2022-08-21T21:30:03.727Z,60.8
2022-08-21T21:33:03.305Z,60.8
2022-08-21T21:36:02.757Z,61.6
2022-08-21T21:39:02.750Z,61.8
2022-08-21T21:42:02.746Z,61.8
2022-08-21T21:45:02.821Z,61.8
2022-08-21T21:48:02.772Z,61.8
2022-08-21T21:54:02.778Z,61.8
2022-08-21T21:57:03.050Z,61.8
2022-08-21T22:00:03.225Z,63.5
2022-08-21T22:03:03.384Z,63.5
2022-08-21T22:06:03.247Z,63.5
2022-08-21T22:09:02.722Z,63.5
2022-08-21T22:12:04.847Z,63.5
2022-08-21T22:15:02.788Z,63.5
2022-08-21T22:18:04.468Z,63.5
2022-08-21T22:21:02.806Z,63.5
2022-08-21T22:24:02.738Z,64.3
2022-08-21T22:27:04.163Z,64.3
2022-08-21T22:30:02.779Z,64.3
2022-08-21T22:33:03.388Z,65
2022-08-21T22:36:02.764Z,65
2022-08-21T22:39:02.900Z,65
2022-08-21T22:42:02.983Z,65
2022-08-21T22:45:02.780Z,65.4
2022-08-21T22:48:02.807Z,65.4
2022-08-21T22:51:03.352Z,65.4
2022-08-21T22:54:02.778Z,65.4
2022-08-21T22:57:02.718Z,65.4
2022-08-21T23:00:02.869Z,65.4
2022-08-21T23:03:05.716Z,65.4
2022-08-21T23:06:03.104Z,65.4
2022-08-21T23:09:02.805Z,66.4
2022-08-21T23:12:14.064Z,66.4
2022-08-21T23:15:04.347Z,66.4
2022-08-21T23:18:02.813Z,66.4
2022-08-21T23:21:04.848Z,66.4
2022-08-21T23:24:03.419Z,66.4
2022-08-21T23:27:02.734Z,66.9
2022-08-21T23:30:03.071Z,66.9
2022-08-21T23:33:03.362Z,67.4
2022-08-21T23:36:04.866Z,67.4
2022-08-21T23:39:02.735Z,67.4
2022-08-21T23:42:02.751Z,67.4
2022-08-21T23:45:13.915Z,67.4
2022-08-21T23:48:02.799Z,67.4
2022-08-21T23:51:03.260Z,67.4
2022-08-21T23:54:03.047Z,67.4
2022-08-21T23:57:02.753Z,67.4
